Time;durP1;ratioP1;P1;durP2;ratioP2;P2;SDS_P1;SDS_P2;PMS_P1;PMS_P2;Temp;Humidity;BMP_temperature;BMP_pressure;BME280_temperature;BME280_humidity;BME280_pressure;Samples;Min_cycle;Max_cycle;Signal;HPM_P1;HPM_P2
2022/04/16 00:01:33;;;;;;;2.08;1.58;;;;;;;;;;5053653;28;20037;-58
2022/04/16 00:04:18;;;;;;;3.63;2.00;;;;;;;;;;5053787;28;20530;-58
2022/04/16 00:07:03;;;;;;;2.50;1.65;;;;;;;;;;5053092;28;20049;-58
2022/04/16 00:09:48;;;;;;;2.88;1.50;;;;;;;;;;5046399;28;20045;-59
2022/04/16 00:12:33;;;;;;;2.70;1.63;;;;;;;;;;5053618;28;20055;-59
2022/04/16 00:15:18;;;;;;;3.47;1.58;;;;;;;;;;5053726;28;20052;-59
2022/04/16 00:18:02;;;;;;;4.05;1.67;;;;;;;;;;5053517;28;20049;-59
2022/04/16 00:20:51;;;;;;;2.33;1.60;;;;;;;;;;5052229;28;20060;-58
2022/04/16 00:23:37;;;;;;;1.92;1.10;;;;;;;;;;5052821;28;20439;-57
2022/04/16 00:26:22;;;;;;;1.98;1.17;;;;;;;;;;5053200;28;20041;-58
2022/04/16 00:29:07;;;;;;;3.80;2.08;;;;;;;;;;5052165;28;20074;-59
2022/04/16 00:31:52;;;;;;;2.17;1.30;;;;;;;;;;5052312;28;20075;-59
2022/04/16 00:34:38;;;;;;;2.15;1.30;;;;;;;;;;5052030;28;20043;-59
2022/04/16 00:37:22;;;;;;;2.38;1.23;;;;;;;;;;5052157;28;20036;-58
2022/04/16 00:40:09;;;;;;;3.00;1.20;;;;;;;;;;5053315;28;20040;-58
2022/04/16 00:42:54;;;;;;;1.88;1.10;;;;;;;;;;5053131;28;20049;-59
2022/04/16 00:45:39;;;;;;;3.38;1.70;;;;;;;;;;5053352;28;20119;-59
2022/04/16 00:48:23;;;;;;;2.70;1.80;;;;;;;;;;5053161;28;20416;-58
2022/04/16 00:51:08;;;;;;;3.13;1.80;;;;;;;;;;5052784;28;20059;-58
2022/04/16 00:53:53;;;;;;;2.28;1.50;;;;;;;;;;5052811;28;20053;-57
2022/04/16 00:56:38;;;;;;;2.25;1.52;;;;;;;;;;5052663;28;20125;-59
2022/04/16 00:59:23;;;;;;;2.20;1.40;;;;;;;;;;5052765;28;20041;-58
2022/04/16 01:02:09;;;;;;;2.85;1.80;;;;;;;;;;5052694;28;20040;-59
2022/04/16 01:04:54;;;;;;;1.88;1.58;;;;;;;;;;5051720;28;20080;-58
2022/04/16 01:07:56;;;;;;;2.25;1.65;;;;;;;;;;5051725;28;20040;-58
2022/04/16 01:10:41;;;;;;;1.95;1.45;;;;;;;;;;5051527;28;20056;-58
2022/04/16 01:13:25;;;;;;;1.85;1.20;;;;;;;;;;5052668;28;20184;-59
2022/04/16 01:16:10;;;;;;;1.60;1.13;;;;;;;;;;5052782;28;20049;-58
2022/04/16 01:18:55;;;;;;;2.67;1.67;;;;;;;;;;5052090;28;20149;-59
2022/04/16 01:21:39;;;;;;;1.73;1.50;;;;;;;;;;5052255;28;20037;-59
2022/04/16 01:24:24;;;;;;;2.30;1.05;;;;;;;;;;5023191;28;20499;-58
2022/04/16 01:27:08;;;;;;;1.88;1.35;;;;;;;;;;5051084;28;20060;-58
2022/04/16 01:29:53;;;;;;;1.25;1.02;;;;;;;;;;5052223;28;20052;-59
2022/04/16 01:32:38;;;;;;;2.38;1.55;;;;;;;;;;5051954;28;20059;-60
2022/04/16 01:35:24;;;;;;;2.20;1.13;;;;;;;;;;5036586;28;20397;-58
2022/04/16 01:38:08;;;;;;;2.95;1.45;;;;;;;;;;5052129;28;20041;-59
2022/04/16 01:40:56;;;;;;;2.55;1.35;;;;;;;;;;5051955;28;20053;-58
2022/04/16 01:43:41;;;;;;;1.85;1.27;;;;;;;;;;5050909;28;20065;-57
2022/04/16 01:46:29;;;;;;;1.83;1.20;;;;;;;;;;5050927;28;20116;-58
2022/04/16 01:49:13;;;;;;;1.70;1.15;;;;;;;;;;5051165;28;20400;-57
2022/04/16 01:51:58;;;;;;;0.98;0.40;;;;;;;;;;5051308;28;20081;-57
2022/04/16 01:54:43;;;;;;;1.95;0.85;;;;;;;;;;5051765;28;20052;-58
2022/04/16 01:57:27;;;;;;;1.50;0.90;;;;;;;;;;5051936;28;20037;-59
2022/04/16 02:00:14;;;;;;;1.08;0.80;;;;;;;;;;5051900;28;20041;-57
2022/04/16 02:02:59;;;;;;;1.60;1.00;;;;;;;;;;5051766;28;20124;-58
2022/04/16 02:05:44;;;;;;;2.35;1.35;;;;;;;;;;5050702;28;20045;-58
2022/04/16 02:08:28;;;;;;;2.42;1.75;;;;;;;;;;5050762;28;20048;-58
2022/04/16 02:11:12;;;;;;;4.30;1.63;;;;;;;;;;5051660;28;20045;-58
2022/04/16 02:13:56;;;;;;;2.45;1.30;;;;;;;;;;5050813;28;20426;-58
2022/04/16 02:16:41;;;;;;;0.85;0.20;;;;;;;;;;5051709;28;20048;-58
2022/04/16 02:19:26;;;;;;;1.67;0.98;;;;;;;;;;5051617;28;20633;-58
2022/04/16 02:22:11;;;;;;;3.08;1.65;;;;;;;;;;5050301;28;20068;-58
2022/04/16 02:24:59;;;;;;;1.63;1.30;;;;;;;;;;5051857;28;20045;-58
2022/04/16 02:27:44;;;;;;;0.30;0.20;;;;;;;;;;5050548;28;20045;-58
2022/04/16 02:30:31;;;;;;;2.20;1.45;;;;;;;;;;5051708;28;20045;-58
2022/04/16 02:33:16;;;;;;;1.13;0.80;;;;;;;;;;5051664;28;20103;-59
2022/04/16 02:36:00;;;;;;;1.50;1.00;;;;;;;;;;5051579;28;20041;-56
2022/04/16 02:38:46;;;;;;;2.00;1.60;;;;;;;;;;5036606;28;20037;-58
2022/04/16 02:41:30;;;;;;;1.30;0.95;;;;;;;;;;5051369;28;20049;-57
2022/04/16 02:47:18;;;;;;;1.67;1.40;;;;;;;;;;5053694;28;20120;-58
2022/04/16 02:50:04;;;;;;;2.40;1.30;;;;;;;;;;5053977;28;20044;-57
2022/04/16 02:52:48;;;;;;;1.98;1.02;;;;;;;;;;5054826;28;20500;-55
2022/04/16 02:55:33;;;;;;;1.50;1.10;;;;;;;;;;5053879;28;20041;-57
2022/04/16 02:58:18;;;;;;;2.25;1.77;;;;;;;;;;5054565;28;20407;-58
2022/04/16 03:01:03;;;;;;;1.63;1.30;;;;;;;;;;5054684;28;20061;-59
2022/04/16 03:03:48;;;;;;;0.88;0.70;;;;;;;;;;5055005;28;20099;-58
2022/04/16 03:06:33;;;;;;;2.33;2.03;;;;;;;;;;5039688;28;20040;-58
2022/04/16 03:09:17;;;;;;;1.35;0.95;;;;;;;;;;5054715;28;20048;-59
2022/04/16 03:12:02;;;;;;;1.20;1.05;;;;;;;;;;5054698;28;20069;-58
2022/04/16 03:17:50;;;;;;;1.27;1.00;;;;;;;;;;5054666;28;20064;-58
2022/04/16 03:20:37;;;;;;;1.05;0.93;;;;;;;;;;5054651;28;20044;-58
2022/04/16 03:23:22;;;;;;;0.50;0.32;;;;;;;;;;5054489;28;20041;-59
2022/04/16 03:26:06;;;;;;;0.95;0.75;;;;;;;;;;5053313;28;20099;-58
2022/04/16 03:28:51;;;;;;;1.23;0.95;;;;;;;;;;5054069;28;20037;-58
2022/04/16 03:31:35;;;;;;;2.13;1.20;;;;;;;;;;5054748;28;20123;-58
2022/04/16 03:34:19;;;;;;;1.25;0.90;;;;;;;;;;5054396;28;20067;-58
2022/04/16 03:37:04;;;;;;;2.90;1.73;;;;;;;;;;5034400;28;20125;-57
2022/04/16 03:39:48;;;;;;;2.35;1.98;;;;;;;;;;5047282;28;20468;-58
2022/04/16 03:42:33;;;;;;;1.60;0.80;;;;;;;;;;5047056;28;20445;-58
2022/04/16 03:45:20;;;;;;;2.53;0.93;;;;;;;;;;5034147;28;20045;-57
2022/04/16 03:48:06;;;;;;;1.55;1.05;;;;;;;;;;5032950;28;20480;-58
2022/04/16 03:50:50;;;;;;;1.15;0.73;;;;;;;;;;5033379;28;20045;-57
2022/04/16 03:53:35;;;;;;;1.60;0.90;;;;;;;;;;5033997;28;20075;-58
2022/04/16 04:02:29;;;;;;;1.58;0.70;;;;;;;;;;5032805;28;20392;-58
2022/04/16 04:05:14;;;;;;;3.45;1.92;;;;;;;;;;5032601;28;20064;-57
2022/04/16 04:07:59;;;;;;;1.63;1.10;;;;;;;;;;5033835;28;20401;-58
2022/04/16 04:10:46;;;;;;;3.55;2.70;;;;;;;;;;5033742;28;20037;-58
2022/04/16 04:13:31;;;;;;;3.30;2.65;;;;;;;;;;5033803;28;20535;-58
2022/04/16 04:16:15;;;;;;;1.30;0.88;;;;;;;;;;5032345;28;20133;-59
2022/04/16 04:19:00;;;;;;;1.98;1.13;;;;;;;;;;5033767;28;20369;-58
2022/04/16 04:21:44;;;;;;;1.75;1.00;;;;;;;;;;5033448;28;20045;-58
2022/04/16 04:24:29;;;;;;;2.45;1.45;;;;;;;;;;5046601;28;20116;-58
2022/04/16 04:27:14;;;;;;;1.90;1.23;;;;;;;;;;5032729;28;20497;-58
2022/04/16 04:30:02;;;;;;;0.93;0.10;;;;;;;;;;5032542;28;20131;-58
2022/04/16 04:32:46;;;;;;;2.85;2.08;;;;;;;;;;5046319;28;20120;-58
2022/04/16 04:35:31;;;;;;;1.30;0.68;;;;;;;;;;5033240;28;20457;-59
2022/04/16 04:38:15;;;;;;;0.68;0.43;;;;;;;;;;5033272;28;20436;-58
2022/04/16 04:41:00;;;;;;;2.65;1.83;;;;;;;;;;5032086;28;20045;-58
2022/04/16 04:43:44;;;;;;;3.10;2.05;;;;;;;;;;5033200;28;20042;-58
2022/04/16 04:46:29;;;;;;;2.65;1.73;;;;;;;;;;5033153;28;20041;-59
2022/04/16 04:49:13;;;;;;;0.98;0.65;;;;;;;;;;5032852;28;20063;-60
2022/04/16 04:51:58;;;;;;;1.90;1.15;;;;;;;;;;5032876;28;20099;-58
2022/04/16 04:54:43;;;;;;;2.13;1.50;;;;;;;;;;5031892;28;20472;-58
2022/04/16 04:57:28;;;;;;;3.63;2.33;;;;;;;;;;5032811;28;20452;-58
2022/04/16 05:00:14;;;;;;;1.17;0.77;;;;;;;;;;5034562;28;20397;-58
2022/04/16 05:02:59;;;;;;;0.77;0.40;;;;;;;;;;5052212;28;20049;-58
2022/04/16 05:05:44;;;;;;;1.42;0.70;;;;;;;;;;5052460;28;20052;-58
2022/04/16 05:08:28;;;;;;;0.50;0.28;;;;;;;;;;5051460;28;20496;-57
2022/04/16 05:11:13;;;;;;;1.70;0.95;;;;;;;;;;5052467;28;20044;-57
2022/04/16 05:13:59;;;;;;;2.63;1.60;;;;;;;;;;5052448;28;20041;-57
2022/04/16 05:16:44;;;;;;;1.75;1.40;;;;;;;;;;5051800;28;20124;-57
2022/04/16 05:19:29;;;;;;;1.05;0.45;;;;;;;;;;5065590;28;20056;-57
2022/04/16 05:22:14;;;;;;;2.47;1.60;;;;;;;;;;5037254;28;20130;-58
2022/04/16 05:24:59;;;;;;;2.35;1.40;;;;;;;;;;5052376;28;20049;-58
2022/04/16 05:27:43;;;;;;;1.70;1.38;;;;;;;;;;5051277;28;20400;-58
2022/04/16 05:30:38;;;;;;;2.30;1.05;;;;;;;;;;5052239;28;20480;-57
2022/04/16 05:36:33;;;;;;;1.48;0.90;;;;;;;;;;5051729;28;20068;-58
2022/04/16 05:39:18;;;;;;;2.83;1.00;;;;;;;;;;5051088;28;20506;-58
2022/04/16 05:42:02;;;;;;;2.00;1.05;;;;;;;;;;5052315;28;20122;-58
2022/04/16 05:44:47;;;;;;;1.48;0.90;;;;;;;;;;5051171;28;20040;-58
2022/04/16 05:47:32;;;;;;;1.98;1.20;;;;;;;;;;5052182;28;20041;-58
2022/04/16 05:50:17;;;;;;;0.98;0.70;;;;;;;;;;5051148;28;20491;-58
2022/04/16 05:53:02;;;;;;;1.08;0.88;;;;;;;;;;5052228;28;20049;-58
2022/04/16 05:55:47;;;;;;;1.17;0.57;;;;;;;;;;5037163;28;20075;-58
2022/04/16 05:58:32;;;;;;;4.32;0.63;;;;;;;;;;5051958;28;20068;-59
2022/04/16 06:01:18;;;;;;;0.75;0.30;;;;;;;;;;5051887;28;20048;-58
2022/04/16 06:04:03;;;;;;;0.40;0.30;;;;;;;;;;5052085;28;20045;-59
2022/04/16 06:06:47;;;;;;;1.10;0.70;;;;;;;;;;5036652;28;20040;-58
2022/04/16 06:09:32;;;;;;;0.68;0.45;;;;;;;;;;5037018;28;20103;-58
2022/04/16 06:12:17;;;;;;;1.15;0.52;;;;;;;;;;5051766;28;20143;-57
2022/04/16 06:15:01;;;;;;;1.10;0.50;;;;;;;;;;5036783;28;20049;-58
2022/04/16 06:17:47;;;;;;;1.90;0.57;;;;;;;;;;5051596;28;20052;-59
2022/04/16 06:20:32;;;;;;;0.95;0.47;;;;;;;;;;5051771;28;20103;-58
2022/04/16 06:23:18;;;;;;;1.05;0.30;;;;;;;;;;5054971;28;20065;-57
2022/04/16 06:26:04;;;;;;;0.10;0.03;;;;;;;;;;5054937;28;20040;-57
2022/04/16 06:28:48;;;;;;;0.60;0.30;;;;;;;;;;5055923;28;20044;-57
2022/04/16 06:31:33;;;;;;;0.52;0.30;;;;;;;;;;5055583;28;20068;-57
2022/04/16 06:34:18;;;;;;;0.90;0.38;;;;;;;;;;5054443;28;20126;-58
2022/04/16 06:37:03;;;;;;;0.70;0.20;;;;;;;;;;5055376;28;20477;-57
2022/04/16 06:39:47;;;;;;;1.05;0.30;;;;;;;;;;5055361;28;20072;-57
2022/04/16 06:42:32;;;;;;;0.60;0.30;;;;;;;;;;5054996;28;20045;-58
2022/04/16 06:45:17;;;;;;;0.03;0.00;;;;;;;;;;5055384;28;20076;-58
2022/04/16 06:48:01;;;;;;;0.63;0.40;;;;;;;;;;5055134;28;20079;-58
2022/04/16 06:50:46;;;;;;;0.52;0.22;;;;;;;;;;5055268;28;20059;-57
2022/04/16 06:53:30;;;;;;;0.60;0.40;;;;;;;;;;5054443;28;20099;-57
2022/04/16 06:56:15;;;;;;;0.40;0.20;;;;;;;;;;5055153;28;20052;-59
2022/04/16 06:59:00;;;;;;;0.47;0.22;;;;;;;;;;5054358;28;20053;-57
2022/04/16 07:01:45;;;;;;;1.10;0.30;;;;;;;;;;5055060;28;20045;-58
2022/04/16 07:04:30;;;;;;;0.10;0.00;;;;;;;;;;5055184;28;20053;-58
2022/04/16 07:07:14;;;;;;;0.80;0.20;;;;;;;;;;5054693;28;20262;-59
2022/04/16 07:09:59;;;;;;;3.03;0.47;;;;;;;;;;5054295;28;20049;-59
2022/04/16 07:12:44;;;;;;;0.52;0.20;;;;;;;;;;5054684;28;20052;-59
2022/04/16 07:15:28;;;;;;;0.20;0.10;;;;;;;;;;5034896;28;20049;-58
2022/04/16 07:18:13;;;;;;;0.70;0.40;;;;;;;;;;5033314;28;20053;-58
2022/04/16 07:20:57;;;;;;;0.63;0.40;;;;;;;;;;5034861;28;20053;-59
2022/04/16 07:23:42;;;;;;;0.57;0.30;;;;;;;;;;5019770;28;20124;-58
2022/04/16 07:26:26;;;;;;;0.57;0.22;;;;;;;;;;5034643;28;20116;-58
2022/04/16 07:29:10;;;;;;;0.60;0.25;;;;;;;;;;5034507;28;20060;-58
2022/04/16 07:31:55;;;;;;;0.98;0.40;;;;;;;;;;5033319;28;20045;-59
2022/04/16 07:34:39;;;;;;;1.35;0.70;;;;;;;;;;5033803;28;20381;-58
2022/04/16 07:37:24;;;;;;;0.20;0.05;;;;;;;;;;5034633;28;20049;-58
2022/04/16 07:40:09;;;;;;;0.60;0.40;;;;;;;;;;5033066;28;20045;-57
2022/04/16 07:42:53;;;;;;;0.50;0.30;;;;;;;;;;5033225;28;20045;-59
2022/04/16 07:45:38;;;;;;;1.42;0.30;;;;;;;;;;5034275;28;20044;-59
2022/04/16 07:48:23;;;;;;;1.52;0.30;;;;;;;;;;5034343;28;20050;-58
2022/04/16 07:51:07;;;;;;;0.50;0.28;;;;;;;;;;5034145;28;20045;-58
2022/04/16 07:53:52;;;;;;;0.50;0.30;;;;;;;;;;5033062;28;20041;-59
2022/04/16 07:56:37;;;;;;;0.73;0.40;;;;;;;;;;5033898;28;20050;-58
2022/04/16 07:59:21;;;;;;;0.63;0.22;;;;;;;;;;5034083;28;20650;-58
2022/04/16 08:02:06;;;;;;;0.93;0.43;;;;;;;;;;5050534;28;20183;-58
2022/04/16 08:04:51;;;;;;;0.45;0.40;;;;;;;;;;5053771;28;20480;-57
2022/04/16 08:07:35;;;;;;;0.80;0.38;;;;;;;;;;5052986;28;20116;-57
2022/04/16 08:10:20;;;;;;;0.75;0.63;;;;;;;;;;5053828;28;20064;-58
2022/04/16 08:13:07;;;;;;;0.70;0.40;;;;;;;;;;5052429;28;20057;-59
2022/04/16 08:15:52;;;;;;;1.17;0.60;;;;;;;;;;5053496;28;20045;-57
2022/04/16 08:18:36;;;;;;;1.10;0.50;;;;;;;;;;5053827;28;20080;-58
2022/04/16 08:21:21;;;;;;;1.45;0.93;;;;;;;;;;5053462;28;20045;-57
2022/04/16 08:24:13;;;;;;;1.40;0.80;;;;;;;;;;5052291;28;20163;-59
2022/04/16 08:26:57;;;;;;;;;;;;;;;;;;5053705;28;20041;-58
2022/04/16 08:29:41;;;;;;;1.55;1.10;;;;;;;;;;5053359;28;20003;-57
2022/04/16 08:32:26;;;;;;;1.83;1.20;;;;;;;;;;5053141;28;20148;-58
2022/04/16 08:35:16;;;;;;;0.95;0.43;;;;;;;;;;5053431;28;20138;-58
2022/04/16 08:38:07;;;;;;;0.98;0.68;;;;;;;;;;5052074;28;20458;-59
2022/04/16 08:40:53;;;;;;;1.88;0.82;;;;;;;;;;5052264;28;20503;-58
2022/04/16 08:43:39;;;;;;;1.63;0.80;;;;;;;;;;5052523;28;20079;-58
2022/04/16 08:46:26;;;;;;;1.30;0.93;;;;;;;;;;5052567;28;20055;-58
2022/04/16 08:49:11;;;;;;;1.60;0.95;;;;;;;;;;5052097;28;20496;-58
2022/04/16 08:51:56;;;;;;;1.58;0.75;;;;;;;;;;5051067;28;20053;-57
2022/04/16 08:54:40;;;;;;;1.40;0.82;;;;;;;;;;5051258;28;20106;-59
2022/04/16 08:57:25;;;;;;;1.63;1.00;;;;;;;;;;5053062;28;20041;-58
2022/04/16 09:00:13;;;;;;;0.45;0.30;;;;;;;;;;5052426;28;20056;-57
2022/04/16 09:02:58;;;;;;;1.73;0.65;;;;;;;;;;5052909;28;20052;-60
2022/04/16 09:05:43;;;;;;;2.17;1.25;;;;;;;;;;5053078;28;20059;-58
2022/04/16 09:08:29;;;;;;;2.17;1.25;;;;;;;;;;5052712;28;20164;-59
2022/04/16 09:11:14;;;;;;;1.33;0.52;;;;;;;;;;5052628;28;20049;-59
2022/04/16 09:13:58;;;;;;;2.08;1.30;;;;;;;;;;5052565;28;20057;-59
2022/04/16 09:16:43;;;;;;;0.90;0.45;;;;;;;;;;5051176;28;20049;-58
2022/04/16 09:19:29;;;;;;;1.75;0.93;;;;;;;;;;5052672;28;20143;-58
2022/04/16 09:22:28;;;;;;;1.67;0.98;;;;;;;;;;5052446;28;20112;-58
2022/04/16 09:25:17;;;;;;;1.23;0.75;;;;;;;;;;5051370;28;20087;-57
2022/04/16 09:28:06;;;;;;;1.92;1.33;;;;;;;;;;5051365;28;20190;-59
2022/04/16 09:30:52;;;;;;;2.80;1.67;;;;;;;;;;5037307;28;20143;-59
2022/04/16 09:33:37;;;;;;;1.05;0.75;;;;;;;;;;5051177;28;20049;-58
2022/04/16 09:36:28;;;;;;;2.40;1.15;;;;;;;;;;5051845;28;20045;-58
2022/04/16 09:39:13;;;;;;;1.30;0.70;;;;;;;;;;5032168;28;20041;-58
2022/04/16 09:41:57;;;;;;;2.38;1.10;;;;;;;;;;5032198;28;20072;-58
2022/04/16 09:44:43;;;;;;;1.05;0.70;;;;;;;;;;5032200;28;20103;-57
2022/04/16 09:47:30;;;;;;;1.92;0.93;;;;;;;;;;5058646;28;20065;-58
2022/04/16 09:50:15;;;;;;;1.70;1.02;;;;;;;;;;5032244;28;20052;-58
2022/04/16 09:53:02;;;;;;;1.25;0.82;;;;;;;;;;5032319;28;20096;-58
2022/04/16 09:55:47;;;;;;;0.50;0.45;;;;;;;;;;5031442;28;20049;-58
2022/04/16 09:58:38;;;;;;;1.98;1.08;;;;;;;;;;5032226;28;20049;-58
2022/04/16 10:01:24;;;;;;;2.42;0.93;;;;;;;;;;5043864;28;20049;-56
2022/04/16 10:04:08;;;;;;;2.63;1.27;;;;;;;;;;5051774;28;20499;-58
2022/04/16 10:06:54;;;;;;;1.45;0.73;;;;;;;;;;5051855;28;20095;-58
2022/04/16 10:09:41;;;;;;;0.88;0.52;;;;;;;;;;5051827;28;20044;-58
2022/04/16 10:15:18;;;;;;;1.35;0.93;;;;;;;;;;5051880;28;20041;-58
2022/04/16 10:18:02;;;;;;;;;;;;;;;;;;5051709;28;20060;-59
2022/04/16 10:20:56;;;;;;;1.70;0.95;;;;;;;;;;5050948;28;19970;-58
2022/04/16 10:23:41;;;;;;;1.08;0.60;;;;;;;;;;5051562;28;20407;-57
2022/04/16 10:26:37;;;;;;;1.85;1.25;;;;;;;;;;5051764;28;20049;-57
2022/04/16 10:29:21;;;;;;;1.83;0.90;;;;;;;;;;5050804;28;20056;-60
2022/04/16 10:32:18;;;;;;;1.73;0.60;;;;;;;;;;5051555;28;20048;-59
2022/04/16 10:35:03;;;;;;;0.30;0.20;;;;;;;;;;5051498;28;20382;-58
2022/04/16 10:37:54;;;;;;;1.10;0.88;;;;;;;;;;5051637;28;20040;-59
2022/04/16 10:40:41;;;;;;;1.02;0.63;;;;;;;;;;5051684;28;20041;-58
2022/04/16 10:43:30;;;;;;;2.20;0.93;;;;;;;;;;5050423;28;20481;-58
2022/04/16 10:46:14;;;;;;;0.77;0.47;;;;;;;;;;5050280;28;20385;-59
2022/04/16 10:49:02;;;;;;;0.40;0.20;;;;;;;;;;5036436;28;20041;-59
2022/04/16 10:51:47;;;;;;;1.20;0.70;;;;;;;;;;5050651;28;20044;-59
2022/04/16 10:54:34;;;;;;;1.90;1.15;;;;;;;;;;5050511;28;20374;-58
2022/04/16 10:57:21;;;;;;;1.67;1.13;;;;;;;;;;5051227;28;20037;-60
2022/04/16 11:00:12;;;;;;;1.00;0.68;;;;;;;;;;5051385;28;20124;-58
2022/04/16 11:02:57;;;;;;;;;;;;;;;;;;5051649;28;20048;-58
2022/04/16 11:05:42;;;;;;;1.40;0.55;;;;;;;;;;5051387;28;19920;-58
2022/04/16 11:08:27;;;;;;;0.95;0.68;;;;;;;;;;5033921;28;20056;-58
2022/04/16 11:11:13;;;;;;;2.22;1.10;;;;;;;;;;5034801;28;20041;-58
2022/04/16 11:13:59;;;;;;;1.30;0.88;;;;;;;;;;5034804;28;20052;-57
2022/04/16 11:16:44;;;;;;;1.73;0.90;;;;;;;;;;5034734;28;20056;-58
2022/04/16 11:19:29;;;;;;;1.55;0.93;;;;;;;;;;5034667;28;20515;-58
2022/04/16 11:22:13;;;;;;;1.85;1.05;;;;;;;;;;5034433;28;20049;-58
2022/04/16 11:24:58;;;;;;;0.47;0.38;;;;;;;;;;5034896;28;20052;-58
2022/04/16 11:36:55;;;;;;;1.98;1.10;;;;;;;;;;5034366;28;20424;-58
2022/04/16 11:39:40;;;;;;;2.45;1.27;;;;;;;;;;5047496;28;20041;-58
2022/04/16 11:42:26;;;;;;;1.67;0.90;;;;;;;;;;5034338;28;20041;-59
2022/04/16 11:45:10;;;;;;;2.05;1.17;;;;;;;;;;5034253;28;20076;-58
2022/04/16 11:47:55;;;;;;;2.35;1.13;;;;;;;;;;5034229;28;20446;-58
2022/04/16 11:50:39;;;;;;;2.13;1.20;;;;;;;;;;5034176;28;20107;-58
2022/04/16 11:53:24;;;;;;;3.60;0.88;;;;;;;;;;5034080;28;20088;-59
2022/04/16 11:56:10;;;;;;;2.70;1.10;;;;;;;;;;5033992;28;20122;-58
2022/04/16 11:58:54;;;;;;;1.23;0.75;;;;;;;;;;5019231;28;20041;-58
2022/04/16 12:01:39;;;;;;;1.80;0.80;;;;;;;;;;5046613;28;20045;-57
2022/04/16 12:04:33;;;;;;;1.92;1.27;;;;;;;;;;5025008;28;20052;-58
2022/04/16 12:07:18;;;;;;;2.47;1.95;;;;;;;;;;5053698;28;20037;-58
2022/04/16 12:10:03;;;;;;;1.92;1.15;;;;;;;;;;5053838;28;20497;-58
2022/04/16 12:12:48;;;;;;;2.63;1.55;;;;;;;;;;5053046;28;20053;-58
2022/04/16 12:15:32;;;;;;;2.60;1.40;;;;;;;;;;5052860;28;20041;-59
2022/04/16 12:18:22;;;;;;;3.70;1.92;;;;;;;;;;5053942;28;20065;-58
2022/04/16 12:21:09;;;;;;;2.00;1.17;;;;;;;;;;5053590;28;20037;-58
2022/04/16 12:24:03;;;;;;;2.22;1.65;;;;;;;;;;5052305;28;20377;-58
2022/04/16 12:26:48;;;;;;;3.25;1.60;;;;;;;;;;5053704;28;20377;-58
2022/04/16 12:29:33;;;;;;;1.98;1.30;;;;;;;;;;5053556;28;20045;-58
2022/04/16 12:32:26;;;;;;;1.77;1.27;;;;;;;;;;5053288;28;20127;-58
2022/04/16 12:35:12;;;;;;;2.50;1.45;;;;;;;;;;5052480;28;20060;-57
2022/04/16 12:37:58;;;;;;;2.40;1.67;;;;;;;;;;5053351;28;20036;-59
2022/04/16 12:40:43;;;;;;;2.47;1.67;;;;;;;;;;5052275;28;20108;-58
2022/04/16 12:43:29;;;;;;;3.33;1.58;;;;;;;;;;5053171;28;20052;-59
2022/04/16 12:46:13;;;;;;;2.17;1.50;;;;;;;;;;5053002;28;20045;-59
2022/04/16 12:48:58;;;;;;;1.88;0.63;;;;;;;;;;5052276;28;20060;-59
2022/04/16 12:51:47;;;;;;;2.80;2.00;;;;;;;;;;5053184;28;20045;-59
2022/04/16 12:54:35;;;;;;;2.88;2.00;;;;;;;;;;5037814;28;20118;-58
2022/04/16 12:57:19;;;;;;;4.55;1.75;;;;;;;;;;5037296;28;20121;-59
2022/04/16 13:00:09;;;;;;;2.05;0.95;;;;;;;;;;5053125;28;20041;-57
2022/04/16 13:02:53;;;;;;;1.92;1.25;;;;;;;;;;5051856;28;20041;-58
2022/04/16 13:05:38;;;;;;;2.92;1.17;;;;;;;;;;5052762;28;20040;-58
2022/04/16 13:08:24;;;;;;;4.63;1.60;;;;;;;;;;5052708;28;20045;-57
2022/04/16 13:11:10;;;;;;;2.35;2.00;;;;;;;;;;5052824;28;20048;-59
2022/04/16 13:13:55;;;;;;;2.50;1.52;;;;;;;;;;5052749;28;20443;-60
2022/04/16 13:16:40;;;;;;;3.08;1.92;;;;;;;;;;5052612;28;20041;-59
2022/04/16 13:19:24;;;;;;;3.90;1.50;;;;;;;;;;5051747;28;20051;-59
2022/04/16 13:22:09;;;;;;;2.20;1.73;;;;;;;;;;5052237;28;20499;-57
2022/04/16 13:24:54;;;;;;;3.53;2.03;;;;;;;;;;5052727;28;20041;-58
2022/04/16 13:27:39;;;;;;;4.97;2.35;;;;;;;;;;5036938;28;20460;-58
2022/04/16 13:30:24;;;;;;;2.67;1.90;;;;;;;;;;5052290;28;20037;-58
2022/04/16 13:33:09;;;;;;;2.92;2.10;;;;;;;;;;5052237;28;20106;-58
2022/04/16 13:35:53;;;;;;;2.90;2.00;;;;;;;;;;5051430;28;20083;-57
2022/04/16 13:38:38;;;;;;;3.03;1.73;;;;;;;;;;5052278;28;20424;-58
2022/04/16 13:41:38;;;;;;;2.90;1.75;;;;;;;;;;5051292;28;20102;-58
2022/04/16 13:44:22;;;;;;;3.70;1.90;;;;;;;;;;5052014;28;20496;-57
2022/04/16 13:47:07;;;;;;;2.88;1.63;;;;;;;;;;5051117;28;20040;-58
2022/04/16 13:49:52;;;;;;;3.03;1.90;;;;;;;;;;5050991;28;20111;-59
2022/04/16 13:52:37;;;;;;;3.05;1.77;;;;;;;;;;5051981;28;20179;-59
2022/04/16 13:55:21;;;;;;;2.88;1.70;;;;;;;;;;5051691;28;20054;-58
2022/04/16 13:58:06;;;;;;;4.43;2.20;;;;;;;;;;5051002;28;20049;-58
2022/04/16 14:00:51;;;;;;;2.42;1.90;;;;;;;;;;5051980;28;20037;-59
2022/04/16 14:03:37;;;;;;;3.17;1.58;;;;;;;;;;5051014;28;20501;-59
2022/04/16 14:06:21;;;;;;;2.70;1.65;;;;;;;;;;5051684;28;20045;-57
2022/04/16 14:09:06;;;;;;;2.72;1.75;;;;;;;;;;5050843;28;20552;-58
2022/04/16 14:11:51;;;;;;;3.15;1.70;;;;;;;;;;5050858;28;20037;-58
2022/04/16 14:14:35;;;;;;;2.55;1.50;;;;;;;;;;5052180;28;20052;-58
2022/04/16 14:17:20;;;;;;;3.55;1.52;;;;;;;;;;5050330;28;20053;-58
2022/04/16 14:20:05;;;;;;;3.28;2.00;;;;;;;;;;5051628;28;20485;-58
2022/04/16 14:22:50;;;;;;;2.25;1.00;;;;;;;;;;5036729;28;20098;-58
2022/04/16 14:25:34;;;;;;;2.97;1.70;;;;;;;;;;5050776;28;20123;-58
2022/04/16 14:28:19;;;;;;;2.50;1.92;;;;;;;;;;5051792;28;20079;-59
2022/04/16 14:31:05;;;;;;;2.92;1.15;;;;;;;;;;5051322;28;20072;-58
2022/04/16 14:33:49;;;;;;;3.22;2.10;;;;;;;;;;5050499;28;20052;-57
2022/04/16 14:36:34;;;;;;;2.60;2.13;;;;;;;;;;5064566;28;20048;-58
2022/04/16 14:39:19;;;;;;;2.72;1.73;;;;;;;;;;5050598;28;20377;-59
2022/04/16 14:42:04;;;;;;;1.80;1.05;;;;;;;;;;5051904;28;20045;-59
2022/04/16 14:44:52;;;;;;;2.08;1.25;;;;;;;;;;5054609;28;20052;-57
2022/04/16 14:47:37;;;;;;;2.42;1.60;;;;;;;;;;5054182;28;20037;-57
2022/04/16 14:50:22;;;;;;;2.97;1.95;;;;;;;;;;5055102;28;20049;-57
2022/04/16 14:53:07;;;;;;;1.58;1.02;;;;;;;;;;5055280;28;20064;-58
2022/04/16 14:55:51;;;;;;;3.50;1.75;;;;;;;;;;5054963;28;20041;-57
2022/04/16 14:58:36;;;;;;;1.90;1.50;;;;;;;;;;5034402;28;20384;-57
2022/04/16 15:01:21;;;;;;;2.30;1.70;;;;;;;;;;5046018;28;20036;-58
2022/04/16 15:04:05;;;;;;;2.28;1.60;;;;;;;;;;5053868;28;20120;-57
2022/04/16 15:06:50;;;;;;;2.58;2.13;;;;;;;;;;5054811;28;20039;-57
2022/04/16 15:09:35;;;;;;;1.80;0.80;;;;;;;;;;5053962;28;20116;-57
2022/04/16 15:12:20;;;;;;;4.45;1.60;;;;;;;;;;5054782;28;20549;-58
2022/04/16 15:15:06;;;;;;;2.25;1.63;;;;;;;;;;5054717;28;20041;-59
2022/04/16 15:17:51;;;;;;;3.05;1.17;;;;;;;;;;5054625;28;20053;-57
2022/04/16 15:20:38;;;;;;;2.42;1.50;;;;;;;;;;5054861;28;20044;-57
2022/04/16 15:23:23;;;;;;;2.45;1.20;;;;;;;;;;5086770;28;20488;-58
2022/04/16 15:26:09;;;;;;;2.35;1.20;;;;;;;;;;5054619;28;20044;-58
2022/04/16 15:28:53;;;;;;;1.95;1.40;;;;;;;;;;5054693;28;20132;-59
2022/04/16 15:31:40;;;;;;;2.30;1.20;;;;;;;;;;5054578;28;20053;-58
2022/04/16 15:34:25;;;;;;;2.53;1.10;;;;;;;;;;5052983;28;20171;-59
2022/04/16 15:37:09;;;;;;;3.55;1.58;;;;;;;;;;5054455;28;20036;-58
2022/04/16 15:39:53;;;;;;;1.42;0.98;;;;;;;;;;5054332;28;20041;-58
2022/04/16 15:42:38;;;;;;;2.42;1.60;;;;;;;;;;5054455;28;20129;-58
2022/04/16 15:45:23;;;;;;;4.35;2.28;;;;;;;;;;5054353;28;20053;-57
2022/04/16 15:48:08;;;;;;;1.95;1.30;;;;;;;;;;5054137;28;20385;-58
2022/04/16 15:50:52;;;;;;;3.38;1.52;;;;;;;;;;5039086;28;20052;-57
2022/04/16 15:53:42;;;;;;;2.03;1.67;;;;;;;;;;5053350;28;20049;-59
2022/04/16 15:56:27;;;;;;;5.57;1.30;;;;;;;;;;5054107;28;20056;-59
2022/04/16 15:59:11;;;;;;;2.00;1.30;;;;;;;;;;5054135;28;20048;-58
2022/04/16 16:01:56;;;;;;;2.58;1.30;;;;;;;;;;5054074;28;20416;-58
2022/04/16 16:04:55;;;;;;;2.67;1.23;;;;;;;;;;5052887;28;20087;-58
2022/04/16 16:07:40;;;;;;;2.75;1.50;;;;;;;;;;5053728;28;20052;-58
2022/04/16 16:10:26;;;;;;;1.55;1.10;;;;;;;;;;5052684;28;20188;-59
2022/04/16 16:13:11;;;;;;;1.40;0.98;;;;;;;;;;5053656;28;20090;-58
2022/04/16 16:15:57;;;;;;;2.65;1.23;;;;;;;;;;5038637;28;20075;-59
2022/04/16 16:18:42;;;;;;;2.10;1.20;;;;;;;;;;5053853;28;20049;-58
2022/04/16 16:21:26;;;;;;;4.32;1.63;;;;;;;;;;5052384;28;20464;-59
2022/04/16 16:24:12;;;;;;;2.63;1.70;;;;;;;;;;5066152;28;20041;-58
2022/04/16 16:26:56;;;;;;;2.13;1.08;;;;;;;;;;5053454;28;20082;-60
2022/04/16 16:29:41;;;;;;;2.70;1.15;;;;;;;;;;5038685;28;20079;-58
2022/04/16 16:32:26;;;;;;;2.33;1.40;;;;;;;;;;5053295;28;20405;-59
2022/04/16 16:35:13;;;;;;;2.03;1.10;;;;;;;;;;5053396;28;20044;-58
2022/04/16 16:37:58;;;;;;;1.00;0.70;;;;;;;;;;5051958;28;20065;-58
2022/04/16 16:40:43;;;;;;;1.27;0.75;;;;;;;;;;5053208;28;20072;-58
2022/04/16 16:43:28;;;;;;;3.55;1.42;;;;;;;;;;5052956;28;20041;-57
2022/04/16 16:46:14;;;;;;;2.03;1.23;;;;;;;;;;5051945;28;20040;-58
2022/04/16 16:49:00;;;;;;;1.83;0.88;;;;;;;;;;5052842;28;20069;-57
2022/04/16 16:51:44;;;;;;;1.45;0.98;;;;;;;;;;5052221;28;20045;-58
2022/04/16 16:54:30;;;;;;;1.55;1.05;;;;;;;;;;5052773;28;20045;-58
2022/04/16 16:57:16;;;;;;;1.70;1.10;;;;;;;;;;5052770;28;20033;-58
2022/04/16 17:00:00;;;;;;;2.38;0.85;;;;;;;;;;5052687;28;20049;-58